createdAt,value
2023-04-03T00:00:25.807Z,102520.78
2023-04-03T00:01:18.462Z,102515.38
2023-04-03T00:02:10.219Z,102528.81
2023-04-03T00:03:01.732Z,102520.38
2023-04-03T00:03:53.618Z,102526.25
2023-04-03T00:04:45.660Z,102522.66
2023-04-03T00:05:39.590Z,102519.94
2023-04-03T00:06:31.138Z,102522.78
2023-04-03T00:07:22.613Z,102518.41
2023-04-03T00:08:14.685Z,102519.94
2023-04-03T00:09:06.936Z,102524.88
2023-04-03T00:10:01.541Z,102519.47
2023-04-03T00:10:55.553Z,102522.34
2023-04-03T00:11:46.900Z,102524.34
2023-04-03T00:12:38.353Z,102523.13
2023-04-03T00:13:30.440Z,102518.00
2023-04-03T00:14:21.976Z,102524.03
2023-04-03T00:15:17.766Z,102516.94
2023-04-03T00:16:11.717Z,102514.53
2023-04-03T00:17:03.444Z,102517.88
2023-04-03T00:17:54.881Z,102521.78
2023-04-03T00:18:48.245Z,102523.97
2023-04-03T00:19:39.663Z,102525.00
2023-04-03T00:20:32.081Z,102521.78
2023-04-03T00:21:23.547Z,102520.75
2023-04-03T00:22:15.230Z,102524.56
2023-04-03T00:23:06.815Z,102525.97
2023-04-03T00:23:58.498Z,102523.72
2023-04-03T00:24:49.870Z,102515.75
2023-04-03T00:25:41.778Z,102523.00
2023-04-03T00:26:33.253Z,102515.97
2023-04-03T00:27:24.702Z,102522.59
2023-04-03T00:28:16.206Z,102532.97
2023-04-03T00:29:07.713Z,102524.03
2023-04-03T00:29:59.180Z,102525.09
2023-04-03T00:30:51.619Z,102518.91
2023-04-03T00:31:43.105Z,102526.13
2023-04-03T00:32:37.110Z,102523.91
2023-04-03T00:33:28.650Z,102525.00
2023-04-03T00:34:22.619Z,102519.59
2023-04-03T00:35:16.955Z,102525.19
2023-04-03T00:36:10.734Z,102517.84
2023-04-03T00:37:02.388Z,102520.25
2023-04-03T00:37:57.498Z,102525.84
2023-04-03T00:38:48.952Z,102523.13
2023-04-03T00:39:40.454Z,102533.25
2023-04-03T00:40:38.662Z,102522.72
2023-04-03T00:41:30.610Z,102529.50
2023-04-03T00:42:22.229Z,102522.44
2023-04-03T00:43:27.202Z,102526.66
2023-04-03T00:44:42.485Z,102524.38
2023-04-03T00:45:38.131Z,102523.78
2023-04-03T00:46:29.629Z,102520.75
2023-04-03T00:47:25.955Z,102524.34
2023-04-03T00:48:43.647Z,102517.25
2023-04-03T00:49:37.493Z,102519.97
2023-04-03T00:50:33.098Z,102527.94
2023-04-03T00:51:27.432Z,102525.97
2023-04-03T00:52:24.334Z,102516.38
2023-04-03T00:53:23.521Z,102515.94
2023-04-03T00:54:15.314Z,102517.59
2023-04-03T00:55:11.130Z,102517.91
2023-04-03T00:56:10.006Z,102515.66
2023-04-03T00:57:01.851Z,102514.78
2023-04-03T00:57:56.070Z,102517.16
2023-04-03T00:58:59.788Z,102523.81
2023-04-03T01:00:02.320Z,102518.41
2023-04-03T01:00:59.139Z,102521.72
2023-04-03T01:01:51.961Z,102514.63
2023-04-03T01:02:43.636Z,102515.41
2023-04-03T01:03:41.561Z,102511.94
2023-04-03T01:04:37.830Z,102510.91
2023-04-03T01:05:29.652Z,102518.09
2023-04-03T01:06:27.859Z,102518.22
2023-04-03T01:07:28.946Z,102519.91
2023-04-03T01:08:20.559Z,102517.94
2023-04-03T01:09:12.055Z,102517.94
2023-04-03T01:10:15.047Z,102516.16
2023-04-03T01:11:09.064Z,102512.72
2023-04-03T01:12:21.606Z,102514.50
2023-04-03T01:13:26.404Z,102521.25
2023-04-03T01:14:18.121Z,102520.84
2023-04-03T01:15:24.212Z,102512.88
2023-04-03T01:16:16.096Z,102520.69
2023-04-03T01:17:31.432Z,102516.50
2023-04-03T01:18:26.054Z,102515.28
2023-04-03T01:19:19.707Z,102516.97
2023-04-03T01:20:32.972Z,102511.56
2023-04-03T01:21:39.689Z,102508.56
2023-04-03T01:23:01.744Z,102512.75
2023-04-03T01:23:58.970Z,102515.31
2023-04-03T01:24:52.098Z,102514.13
2023-04-03T01:25:50.655Z,102511.28
2023-04-03T01:26:44.522Z,102519.72
2023-04-03T01:27:36.056Z,102505.25
2023-04-03T01:28:31.155Z,102517.91
2023-04-03T01:29:22.662Z,102516.09
2023-04-03T01:30:18.525Z,102516.09
2023-04-03T01:31:30.594Z,102510.53
2023-04-03T01:32:22.406Z,102514.16
2023-04-03T01:33:14.457Z,102510.72
2023-04-03T01:34:06.070Z,102514.16
2023-04-03T01:34:57.707Z,102516.56
2023-04-03T01:35:50.919Z,102508.91
2023-04-03T01:36:42.453Z,102510.53
2023-04-03T01:37:34.488Z,102513.09
2023-04-03T01:38:28.110Z,102511.47
2023-04-03T01:39:20.844Z,102512.06
2023-04-03T01:40:12.536Z,102500.78
2023-04-03T01:41:06.492Z,102522.28
2023-04-03T01:42:00.497Z,102516.28
2023-04-03T01:42:57.814Z,102522.44
2023-04-03T01:43:50.384Z,102516.28
2023-04-03T01:44:43.063Z,102523.97
2023-04-03T01:45:34.753Z,102519.59
2023-04-03T01:46:26.483Z,102521.53
2023-04-03T01:47:20.578Z,102523.97
2023-04-03T01:48:12.329Z,102523.03
2023-04-03T01:49:04.974Z,102517.94
2023-04-03T01:49:58.931Z,102524.84
2023-04-03T01:50:53.118Z,102520.66
2023-04-03T01:51:44.585Z,102523.03
2023-04-03T01:52:36.081Z,102524.25
2023-04-03T01:53:27.922Z,102515.94
2023-04-03T01:54:19.420Z,102516.69
2023-04-03T01:55:10.862Z,102519.53
2023-04-03T01:56:04.251Z,102517.72
2023-04-03T01:56:57.254Z,102517.28
2023-04-03T01:57:51.074Z,102511.56
2023-04-03T01:58:45.203Z,102512.31
2023-04-03T01:59:37.024Z,102515.00
2023-04-03T02:00:28.949Z,102512.59
2023-04-03T02:01:20.548Z,102513.66
2023-04-03T02:02:13.446Z,102517.84
2023-04-03T02:03:05.236Z,102509.28
2023-04-03T02:03:57.436Z,102520.00
2023-04-03T02:04:48.900Z,102516.97
2023-04-03T02:05:40.816Z,102509.47
2023-04-03T02:06:32.454Z,102510.50
2023-04-03T02:07:23.996Z,102515.63
2023-04-03T02:08:15.849Z,102514.41
2023-04-03T02:09:07.854Z,102515.94
2023-04-03T02:09:59.593Z,102523.44
2023-04-03T02:10:51.887Z,102521.34
2023-04-03T02:11:43.355Z,102512.78
2023-04-03T02:12:35.876Z,102526.34
2023-04-03T02:13:27.345Z,102519.25
2023-04-03T02:14:18.910Z,102522.44
2023-04-03T02:15:11.358Z,102514.78
2023-04-03T02:16:13.375Z,102522.16
2023-04-03T02:17:10.794Z,102520.47
2023-04-03T02:18:02.212Z,102516.13
2023-04-03T02:18:59.385Z,102521.25
2023-04-03T02:19:51.141Z,102520.06
2023-04-03T02:20:43.214Z,102518.25
2023-04-03T02:21:34.659Z,102516.44
2023-04-03T02:22:26.424Z,102522.91
2023-04-03T02:23:17.879Z,102521.88
2023-04-03T02:24:09.294Z,102520.94
2023-04-03T02:25:03.389Z,102519.03
2023-04-03T02:26:03.982Z,102520.66
2023-04-03T02:26:55.689Z,102521.41
2023-04-03T02:27:47.580Z,102518.72
2023-04-03T02:28:42.014Z,102520.38
2023-04-03T02:29:33.478Z,102520.53
2023-04-03T02:30:27.425Z,102516.00
2023-04-03T02:31:19.369Z,102519.31
2023-04-03T02:32:12.112Z,102527.00
2023-04-03T02:33:05.319Z,102525.94
2023-04-03T02:33:56.855Z,102525.94
2023-04-03T02:34:48.352Z,102522.34
2023-04-03T02:35:40.983Z,102522.22
2023-04-03T02:36:33.055Z,102521.28
2023-04-03T02:37:28.030Z,102526.41
2023-04-03T02:38:20.095Z,102523.72
2023-04-03T02:39:12.263Z,102527.00
2023-04-03T02:40:05.476Z,102531.97
2023-04-03T02:41:23.264Z,102525.06
2023-04-03T02:42:16.340Z,102524.13
2023-04-03T02:43:07.834Z,102525.94
2023-04-03T02:44:04.785Z,102525.63
2023-04-03T02:44:59.405Z,102530.75
2023-04-03T02:45:52.419Z,102529.72
2023-04-03T02:46:44.365Z,102532.13
2023-04-03T02:47:36.042Z,102529.56
2023-04-03T02:48:30.862Z,102529.41
2023-04-03T02:49:24.939Z,102533.63
2023-04-03T02:50:16.605Z,102533.63
2023-04-03T02:51:08.296Z,102527.59
2023-04-03T02:52:04.171Z,102526.84
2023-04-03T02:52:56.074Z,102533.63
2023-04-03T02:53:50.641Z,102530.03
2023-04-03T02:54:46.199Z,102528.97
2023-04-03T02:55:37.976Z,102533.34
2023-04-03T02:56:31.900Z,102539.19
2023-04-03T02:57:23.693Z,102530.78
2023-04-03T02:58:15.381Z,102532.28
2023-04-03T02:59:07.260Z,102532.41
2023-04-03T03:00:01.013Z,102529.72
2023-04-03T03:00:52.562Z,102536.47
2023-04-03T03:01:44.202Z,102535.59
2023-04-03T03:02:35.955Z,102532.88
2023-04-03T03:03:27.446Z,102540.72
2023-04-03T03:04:19.484Z,102533.94
2023-04-03T03:05:12.059Z,102531.25
2023-04-03T03:06:05.508Z,102541.59
2023-04-03T03:06:58.731Z,102535.44
2023-04-03T03:07:50.456Z,102534.53
2023-04-03T03:08:45.713Z,102535.28
2023-04-03T03:09:39.513Z,102537.84
2023-04-03T03:10:31.311Z,102539.94
2023-04-03T03:11:22.950Z,102538.28
2023-04-03T03:12:16.876Z,102540.09
2023-04-03T03:13:15.566Z,102539.03
2023-04-03T03:14:07.089Z,102536.31
2023-04-03T03:14:58.815Z,102535.13
2023-04-03T03:15:50.625Z,102531.84
2023-04-03T03:16:43.044Z,102536.19
2023-04-03T03:17:35.001Z,102535.28
2023-04-03T03:18:26.729Z,102535.28
2023-04-03T03:19:21.184Z,102536.19
2023-04-03T03:20:15.047Z,102534.38
2023-04-03T03:21:07.136Z,102536.03
2023-04-03T03:22:00.438Z,102530.03
2023-04-03T03:22:51.837Z,102537.25
2023-04-03T03:23:44.644Z,102531.50
2023-04-03T03:24:36.630Z,102533.59
2023-04-03T03:25:28.332Z,102535.88
2023-04-03T03:26:19.831Z,102544.47
2023-04-03T03:27:11.534Z,102534.53
2023-04-03T03:28:03.022Z,102544.00
2023-04-03T03:28:54.662Z,102541.44
2023-04-03T03:29:46.121Z,102535.56
2023-04-03T03:30:38.671Z,102542.63
2023-04-03T03:31:30.313Z,102536.47
2023-04-03T03:32:22.457Z,102540.69
2023-04-03T03:33:18.758Z,102536.47
2023-04-03T03:34:10.388Z,102538.56
2023-04-03T03:35:04.616Z,102531.47
2023-04-03T03:35:57.094Z,102537.50
2023-04-03T03:36:48.827Z,102527.41
2023-04-03T03:37:40.223Z,102534.94
2023-04-03T03:38:32.005Z,102532.84
2023-04-03T03:39:24.927Z,102528.50
2023-04-03T03:40:16.587Z,102527.69
2023-04-03T03:41:10.031Z,102535.97
2023-04-03T03:42:01.626Z,102534.78
2023-04-03T03:42:53.336Z,102533.28
2023-04-03T03:43:45.423Z,102539.13
2023-04-03T03:44:39.757Z,102537.97
2023-04-03T03:45:32.292Z,102532.84
2023-04-03T03:46:23.777Z,102532.22
2023-04-03T03:47:15.919Z,102534.31
2023-04-03T03:48:07.304Z,102532.38
2023-04-03T03:48:58.832Z,102528.50
2023-04-03T03:49:50.866Z,102534.78
2023-04-03T03:50:42.690Z,102535.53
2023-04-03T03:51:36.949Z,102532.22
2023-04-03T03:52:28.780Z,102534.50
2023-04-03T03:53:20.287Z,102536.00
2023-04-03T03:54:12.960Z,102531.94
2023-04-03T03:55:05.009Z,102536.47
2023-04-03T03:55:58.548Z,102535.25
2023-04-03T03:56:54.691Z,102528.78
2023-04-03T03:57:48.399Z,102532.97
2023-04-03T03:58:39.928Z,102537.63
2023-04-03T03:59:31.964Z,102530.25
2023-04-03T04:00:23.980Z,102529.97
2023-04-03T04:01:19.709Z,102533.91
2023-04-03T04:02:14.952Z,102536.88
2023-04-03T04:03:07.674Z,102533.28
2023-04-03T04:03:59.671Z,102525.94
2023-04-03T04:04:55.741Z,102532.97
2023-04-03T04:05:49.837Z,102532.38
2023-04-03T04:06:41.996Z,102530.41
2023-04-03T04:07:35.093Z,102524.56
2023-04-03T04:08:27.403Z,102525.00
2023-04-03T04:09:20.703Z,102526.22
2023-04-03T04:10:12.518Z,102528.63
2023-04-03T04:11:08.477Z,102531.03
2023-04-03T04:11:59.880Z,102534.31
2023-04-03T04:12:58.518Z,102538.56
2023-04-03T04:13:54.761Z,102532.97
2023-04-03T04:14:50.446Z,102541.28
2023-04-03T04:15:42.709Z,102543.22
2023-04-03T04:16:35.219Z,102529.25
2023-04-03T04:17:31.897Z,102535.41
2023-04-03T04:18:23.632Z,102527.44
2023-04-03T04:19:15.710Z,102536.63
2023-04-03T04:20:10.212Z,102541.72
2023-04-03T04:21:03.777Z,102534.53
2023-04-03T04:21:55.561Z,102539.34
2023-04-03T04:22:47.590Z,102542.31
2023-04-03T04:23:39.385Z,102543.06
2023-04-03T04:24:30.877Z,102541.91
2023-04-03T04:25:22.569Z,102544.44
2023-04-03T04:26:14.718Z,102546.25
2023-04-03T04:27:06.621Z,102536.78
2023-04-03T04:27:58.940Z,102552.53
2023-04-03T04:28:50.830Z,102543.84
2023-04-03T04:29:43.712Z,102551.66
2023-04-03T04:30:35.130Z,102547.00
2023-04-03T04:31:27.373Z,102546.25
2023-04-03T04:32:19.069Z,102548.06
2023-04-03T04:33:11.002Z,102543.53
2023-04-03T04:34:02.512Z,102549.09
2023-04-03T04:34:54.367Z,102545.34
2023-04-03T04:35:48.673Z,102546.38
2023-04-03T04:36:44.294Z,102544.00
2023-04-03T04:37:36.022Z,102547.59
2023-04-03T04:38:27.826Z,102547.59
2023-04-03T04:39:20.069Z,102547.13
2023-04-03T04:40:12.114Z,102551.38
2023-04-03T04:41:03.839Z,102556.91
2023-04-03T04:41:55.651Z,102555.84
2023-04-03T04:42:48.110Z,102545.63
2023-04-03T04:43:40.649Z,102554.19
2023-04-03T04:44:32.633Z,102556.28
2023-04-03T04:45:24.297Z,102561.09
2023-04-03T04:46:16.382Z,102560.06
2023-04-03T04:47:13.000Z,102560.34
2023-04-03T04:48:05.868Z,102562.59
2023-04-03T04:48:57.641Z,102557.97
2023-04-03T04:49:52.131Z,102562.78
2023-04-03T04:50:46.114Z,102557.03
2023-04-03T04:51:44.784Z,102565.63
2023-04-03T04:52:44.670Z,102560.50
2023-04-03T04:53:36.305Z,102562.44
2023-04-03T04:54:28.087Z,102567.25
2023-04-03T04:55:20.365Z,102566.38
2023-04-03T04:56:12.989Z,102563.66
2023-04-03T04:57:05.140Z,102565.78
2023-04-03T04:57:56.824Z,102567.44
2023-04-03T04:58:48.464Z,102568.63
2023-04-03T04:59:42.355Z,102569.41
2023-04-03T05:00:34.231Z,102575.69
2023-04-03T05:01:26.035Z,102572.53
2023-04-03T05:02:27.074Z,102576.16
2023-04-03T05:03:19.893Z,102569.69
2023-04-03T05:04:14.347Z,102576.16
2023-04-03T05:05:06.483Z,102579.00
2023-04-03T05:05:59.510Z,102575.69
2023-04-03T05:06:51.216Z,102575.84
2023-04-03T05:07:49.587Z,102574.06
2023-04-03T05:08:42.106Z,102576.75
2023-04-03T05:09:34.059Z,102577.31
2023-04-03T05:10:26.243Z,102583.78
2023-04-03T05:11:21.201Z,102581.50
2023-04-03T05:12:17.645Z,102582.91
2023-04-03T05:13:15.367Z,102585.16
2023-04-03T05:14:07.957Z,102577.94
2023-04-03T05:15:00.865Z,102584.28
2023-04-03T05:15:54.754Z,102584.41
2023-04-03T05:16:47.033Z,102587.41
2023-04-03T05:17:38.625Z,102589.38
2023-04-03T05:18:31.642Z,102589.09
2023-04-03T05:19:26.341Z,102589.41
2023-04-03T05:20:18.703Z,102586.53
2023-04-03T05:21:11.568Z,102591.63
2023-04-03T05:22:03.489Z,102590.59
2023-04-03T05:22:55.482Z,102592.38
2023-04-03T05:23:49.600Z,102591.34
2023-04-03T05:24:41.507Z,102600.81
2023-04-03T05:25:33.961Z,102588.66
2023-04-03T05:26:26.907Z,102591.22
2023-04-03T05:27:18.516Z,102591.03
2023-04-03T05:28:20.378Z,102595.41
2023-04-03T05:29:17.508Z,102595.41
2023-04-03T05:30:09.787Z,102589.53
2023-04-03T05:31:03.575Z,102596.31
2023-04-03T05:31:59.741Z,102597.94
2023-04-03T05:32:51.741Z,102594.50
2023-04-03T05:33:49.477Z,102595.25
2023-04-03T05:34:43.212Z,102599.75
2023-04-03T05:35:42.737Z,102599.00
2023-04-03T05:36:37.598Z,102594.66
2023-04-03T05:37:32.341Z,102594.50
2023-04-03T05:38:27.415Z,102593.59
2023-04-03T05:39:20.225Z,102598.88
2023-04-03T05:40:12.944Z,102597.94
2023-04-03T05:41:08.477Z,102596.16
2023-04-03T05:42:00.796Z,102608.16
2023-04-03T05:42:54.461Z,102601.25
2023-04-03T05:43:48.358Z,102601.13
2023-04-03T05:44:39.991Z,102609.97
2023-04-03T05:45:31.715Z,102610.91
2023-04-03T05:46:24.015Z,102611.19
2023-04-03T05:47:21.127Z,102611.94
2023-04-03T05:48:13.796Z,102617.19
2023-04-03T05:49:05.665Z,102613.88
2023-04-03T05:50:04.168Z,102611.66
2023-04-03T05:50:58.132Z,102613.47
2023-04-03T05:51:54.296Z,102611.03
2023-04-03T05:52:55.756Z,102616.44
2023-04-03T05:53:51.594Z,102605.34
2023-04-03T05:54:45.320Z,102615.69
2023-04-03T05:55:42.360Z,102610.59
2023-04-03T05:56:33.929Z,102614.19
2023-04-03T05:57:25.780Z,102618.84
2023-04-03T05:58:17.493Z,102614.66
2023-04-03T05:59:12.193Z,102615.09
2023-04-03T06:00:09.176Z,102619.78
2023-04-03T06:01:07.624Z,102619.91
2023-04-03T06:02:00.793Z,102621.72
2023-04-03T06:02:52.521Z,102620.81
2023-04-03T06:03:48.305Z,102631.06
2023-04-03T06:04:40.365Z,102620.22
2023-04-03T06:05:32.214Z,102629.09
2023-04-03T06:06:23.917Z,102624.41
2023-04-03T06:07:19.387Z,102634.47
2023-04-03T06:08:11.112Z,102628.47
2023-04-03T06:09:03.890Z,102628.47
2023-04-03T06:09:57.601Z,102631.91
2023-04-03T06:10:49.196Z,102631.91
2023-04-03T06:11:41.663Z,102632.38
2023-04-03T06:12:33.137Z,102634.81
2023-04-03T06:13:26.993Z,102636.28
2023-04-03T06:14:18.786Z,102633.88
2023-04-03T06:15:11.272Z,102624.69
2023-04-03T06:16:03.506Z,102630.09
2023-04-03T06:16:56.060Z,102631.91
2023-04-03T06:17:47.825Z,102635.06
2023-04-03T06:18:43.587Z,102639.25
2023-04-03T06:19:37.191Z,102642.84
2023-04-03T06:20:28.840Z,102640.91
2023-04-03T06:21:20.640Z,102637.72
2023-04-03T06:22:12.611Z,102642.69
2023-04-03T06:23:08.206Z,102640.28
2023-04-03T06:24:00.511Z,102642.22
2023-04-03T06:24:52.354Z,102631.69
2023-04-03T06:25:43.860Z,102638.91
2023-04-03T06:26:36.259Z,102636.50
2023-04-03T06:27:27.933Z,102644.19
2023-04-03T06:28:20.191Z,102645.03
2023-04-03T06:29:11.584Z,102637.34
2023-04-03T06:30:03.271Z,102638.38
2023-04-03T06:30:54.776Z,102645.72
2023-04-03T06:31:49.926Z,102637.75
2023-04-03T06:32:41.570Z,102637.16
2023-04-03T06:33:33.055Z,102636.69
2023-04-03T06:34:26.745Z,102638.38
2023-04-03T06:35:19.427Z,102637.78
2023-04-03T06:36:11.692Z,102637.19
2023-04-03T06:37:05.664Z,102639.28
2023-04-03T06:37:57.903Z,102636.56
2023-04-03T06:38:49.879Z,102638.84
2023-04-03T06:39:41.463Z,102634.31
2023-04-03T06:40:32.927Z,102631.59
2023-04-03T06:41:24.354Z,102633.03
2023-04-03T06:42:16.027Z,102636.00
2023-04-03T06:43:18.447Z,102633.03
2023-04-03T06:44:11.943Z,102628.59
2023-04-03T06:45:03.575Z,102634.13
2023-04-03T06:45:55.269Z,102631.44
2023-04-03T06:46:47.718Z,102630.41
2023-04-03T06:47:39.272Z,102624.50
2023-04-03T06:48:30.803Z,102629.22
2023-04-03T06:49:22.581Z,102639.19
2023-04-03T06:50:15.471Z,102632.25
2023-04-03T06:51:07.695Z,102633.41
2023-04-03T06:52:00.877Z,102636.69
2023-04-03T06:52:53.666Z,102637.78
2023-04-03T06:53:46.647Z,102628.84
2023-04-03T06:54:42.473Z,102634.94
2023-04-03T06:55:36.986Z,102630.25
2023-04-03T06:56:33.921Z,102640.28
2023-04-03T06:57:26.249Z,102637.22
2023-04-03T06:58:19.061Z,102627.81
2023-04-03T06:59:15.889Z,102632.59
2023-04-03T07:00:08.326Z,102629.63
2023-04-03T07:01:02.412Z,102633.59
2023-04-03T07:01:54.220Z,102629.91
2023-04-03T07:02:46.697Z,102638.78
2023-04-03T07:03:41.011Z,102634.06
2023-04-03T07:04:32.590Z,102634.94
2023-04-03T07:05:27.561Z,102639.53
2023-04-03T07:06:21.738Z,102632.19
2023-04-03T07:07:15.902Z,102637.31
2023-04-03T07:08:07.416Z,102633.97
2023-04-03T07:09:01.341Z,102636.97
2023-04-03T07:09:52.892Z,102641.00
2023-04-03T07:10:44.319Z,102639.31
2023-04-03T07:11:36.993Z,102637.16
2023-04-03T07:12:28.572Z,102635.66
2023-04-03T07:13:20.039Z,102636.94
2023-04-03T07:14:11.705Z,102636.44
2023-04-03T07:15:04.137Z,102643.53
2023-04-03T07:15:55.771Z,102638.13
2023-04-03T07:16:47.401Z,102646.47
2023-04-03T07:17:39.203Z,102635.56
2023-04-03T07:18:30.786Z,102639.44
2023-04-03T07:19:22.576Z,102644.75
2023-04-03T07:20:14.334Z,102641.03
2023-04-03T07:21:06.046Z,102653.13
2023-04-03T07:21:57.806Z,102645.16
2023-04-03T07:22:49.193Z,102648.50
2023-04-03T07:23:40.911Z,102639.25
2023-04-03T07:24:34.654Z,102646.69
2023-04-03T07:25:26.233Z,102646.56
2023-04-03T07:26:17.691Z,102654.16
2023-04-03T07:27:09.741Z,102653.13
2023-04-03T07:28:02.013Z,102641.81
2023-04-03T07:28:58.001Z,102652.63
2023-04-03T07:29:49.541Z,102653.28
2023-04-03T07:30:46.723Z,102648.75
2023-04-03T07:31:42.712Z,102654.94
2023-04-03T07:32:34.489Z,102652.88
2023-04-03T07:33:26.257Z,102648.09
2023-04-03T07:34:17.987Z,102660.31
2023-04-03T07:35:11.716Z,102658.13
2023-04-03T07:36:04.060Z,102656.97
2023-04-03T07:36:57.519Z,102651.44
2023-04-03T07:37:48.948Z,102649.00
2023-04-03T07:38:40.560Z,102644.66
2023-04-03T07:39:32.021Z,102653.38
2023-04-03T07:40:23.777Z,102653.00
2023-04-03T07:41:18.468Z,102651.06
2023-04-03T07:42:09.885Z,102650.19
2023-04-03T07:43:01.945Z,102652.75
2023-04-03T07:43:53.871Z,102655.56
2023-04-03T07:44:45.472Z,102653.38
2023-04-03T07:45:37.393Z,102652.09
2023-04-03T07:46:29.112Z,102650.94
2023-04-03T07:47:22.082Z,102653.75
2023-04-03T07:48:16.844Z,102651.72
2023-04-03T07:49:10.720Z,102653.75
2023-04-03T07:50:02.114Z,102643.97
2023-04-03T07:51:01.308Z,102649.38
2023-04-03T07:51:53.857Z,102650.81
2023-04-03T07:52:46.529Z,102652.47
2023-04-03T07:53:37.898Z,102655.81
2023-04-03T07:54:29.758Z,102650.69
2023-04-03T07:55:21.362Z,102658.63
2023-04-03T07:56:12.875Z,102654.00
2023-04-03T07:57:04.800Z,102658.63
2023-04-03T07:57:56.810Z,102657.72
2023-04-03T07:58:48.319Z,102658.88
2023-04-03T07:59:40.729Z,102659.69
2023-04-03T08:00:32.280Z,102657.75
2023-04-03T08:01:23.663Z,102657.09
2023-04-03T08:02:15.057Z,102659.78
2023-04-03T08:03:09.592Z,102657.56
2023-04-03T08:04:02.521Z,102665.00
2023-04-03T08:04:54.542Z,102663.97
2023-04-03T08:05:48.948Z,102661.09
2023-04-03T08:06:46.533Z,102665.75
2023-04-03T08:07:41.952Z,102661.63
2023-04-03T08:08:33.852Z,102658.00
2023-04-03T08:09:26.417Z,102660.09
2023-04-03T08:10:17.882Z,102666.25
2023-04-03T08:11:11.507Z,102666.78
2023-04-03T08:12:03.047Z,102664.75
2023-04-03T08:12:57.782Z,102663.16
2023-04-03T08:13:49.239Z,102664.69
2023-04-03T08:14:42.796Z,102670.09
2023-04-03T08:15:34.574Z,102660.28
2023-04-03T08:16:29.315Z,102660.28
2023-04-03T08:17:20.899Z,102663.47
2023-04-03T08:18:12.406Z,102661.38
2023-04-03T08:19:07.253Z,102655.69
2023-04-03T08:20:01.547Z,102659.28
2023-04-03T08:20:53.425Z,102655.56
2023-04-03T08:21:48.585Z,102659.34
2023-04-03T08:22:40.449Z,102657.41
2023-04-03T08:23:31.887Z,102661.16
2023-04-03T08:24:23.929Z,102666.84
2023-04-03T08:25:16.050Z,102664.59
2023-04-03T08:26:13.185Z,102664.75
2023-04-03T08:27:04.869Z,102666.31
2023-04-03T08:27:56.792Z,102664.31
2023-04-03T08:28:51.404Z,102669.13
2023-04-03T08:29:45.242Z,102662.28
2023-04-03T08:30:37.007Z,102660.84
2023-04-03T08:31:31.206Z,102664.53
2023-04-03T08:32:23.223Z,102668.34
2023-04-03T08:33:14.884Z,102667.13
2023-04-03T08:34:06.358Z,102665.94
2023-04-03T08:35:01.618Z,102666.06
2023-04-03T08:35:53.170Z,102667.38
2023-04-03T08:36:44.746Z,102671.66
2023-04-03T08:37:37.897Z,102667.22
2023-04-03T08:38:29.370Z,102666.00
2023-04-03T08:39:21.102Z,102664.78
2023-04-03T08:40:17.062Z,102669.13
2023-04-03T08:41:17.560Z,102667.81
2023-04-03T08:42:26.792Z,102660.97
2023-04-03T08:43:37.989Z,102664.56
2023-04-03T08:44:38.150Z,102663.53
2023-04-03T08:45:38.567Z,102662.75
2023-04-03T08:46:56.176Z,102662.91
2023-04-03T08:48:36.759Z,102664.75
2023-04-03T08:49:48.369Z,102663.56
2023-04-03T08:50:50.001Z,102670.09
2023-04-03T08:51:49.894Z,102672.59
2023-04-03T08:52:58.593Z,102672.22
2023-04-03T08:54:01.076Z,102667.63
2023-04-03T08:54:59.003Z,102667.16
2023-04-03T08:55:55.246Z,102676.31
2023-04-03T08:56:46.810Z,102667.28
2023-04-03T08:57:45.703Z,102671.34
2023-04-03T08:58:49.982Z,102664.97
2023-04-03T08:59:41.962Z,102670.94
2023-04-03T09:00:56.589Z,102659.38
2023-04-03T09:01:50.066Z,102664.88
2023-04-03T09:02:48.908Z,102668.03
2023-04-03T09:03:42.531Z,102664.34
2023-04-03T09:04:34.803Z,102668.94
2023-04-03T09:05:54.609Z,102657.81
2023-04-03T09:06:57.358Z,102661.88
2023-04-03T09:08:02.105Z,102672.41
2023-04-03T09:09:05.754Z,102659.28
2023-04-03T09:10:05.297Z,102664.69
2023-04-03T09:11:09.997Z,102660.84
2023-04-03T09:12:10.549Z,102662.63
2023-04-03T09:13:26.616Z,102663.44
2023-04-03T09:14:39.123Z,102657.03
2023-04-03T09:15:38.883Z,102659.41
2023-04-03T09:16:37.511Z,102660.63
2023-04-03T09:18:06.087Z,102656.34
2023-04-03T09:19:14.347Z,102664.09
2023-04-03T09:20:28.949Z,102665.66
2023-04-03T09:21:37.940Z,102668.59
2023-04-03T09:22:36.469Z,102670.47
2023-04-03T09:23:54.095Z,102680.47
2023-04-03T09:24:53.500Z,102670.69
2023-04-03T09:25:47.358Z,102664.88
2023-04-03T09:27:00.525Z,102669.03
2023-04-03T09:27:53.646Z,102668.59
2023-04-03T09:28:50.545Z,102663.06
2023-04-03T09:29:47.154Z,102666.88
2023-04-03T09:30:39.353Z,102673.50
2023-04-03T09:31:41.871Z,102668.09
2023-04-03T09:32:37.978Z,102675.63
2023-04-03T09:33:31.503Z,102675.19
2023-04-03T09:34:31.501Z,102671.75
2023-04-03T09:35:36.348Z,102669.19
2023-04-03T09:36:52.350Z,102674.25
2023-04-03T09:37:46.705Z,102672.66
2023-04-03T09:38:38.262Z,102664.78
2023-04-03T09:39:30.869Z,102661.00
2023-04-03T09:40:29.308Z,102657.53
2023-04-03T09:41:22.331Z,102660.75
2023-04-03T09:42:25.409Z,102666.59
2023-04-03T09:43:16.856Z,102659.84
2023-04-03T09:44:27.218Z,102661.13
2023-04-03T09:45:30.839Z,102655.44
2023-04-03T09:46:31.216Z,102652.00
2023-04-03T09:47:26.860Z,102653.66
2023-04-03T09:48:25.764Z,102658.75
2023-04-03T09:49:21.030Z,102651.78
2023-04-03T09:50:21.349Z,102655.38
2023-04-03T09:51:16.559Z,102661.63
2023-04-03T09:52:25.490Z,102657.38
2023-04-03T09:53:38.652Z,102651.28
2023-04-03T09:54:33.282Z,102649.53
2023-04-03T09:55:29.944Z,102655.94
2023-04-03T09:56:23.631Z,102652.09
2023-04-03T09:57:18.434Z,102648.34
2023-04-03T09:58:29.549Z,102655.25
2023-04-03T09:59:26.101Z,102645.59
2023-04-03T10:00:28.117Z,102645.59
2023-04-03T10:01:24.865Z,102653.41
2023-04-03T10:02:33.004Z,102645.72
2023-04-03T10:03:36.543Z,102648.91
2023-04-03T10:04:40.346Z,102650.25
2023-04-03T10:05:42.746Z,102647.06
2023-04-03T10:06:37.969Z,102643.47
2023-04-03T10:07:32.590Z,102646.28
2023-04-03T10:08:24.941Z,102641.91
2023-04-03T10:09:31.518Z,102637.84
2023-04-03T10:10:26.359Z,102644.16
2023-04-03T10:11:19.754Z,102636.97
2023-04-03T10:12:13.936Z,102639.41
2023-04-03T10:13:09.382Z,102637.47
2023-04-03T10:14:06.291Z,102640.94
2023-04-03T10:15:02.135Z,102639.84
2023-04-03T10:16:18.547Z,102633.88
2023-04-03T10:17:48.836Z,102638.84
2023-04-03T10:18:50.478Z,102636.00
2023-04-03T10:20:08.605Z,102634.94
2023-04-03T10:21:24.708Z,102629.97
2023-04-03T10:22:37.962Z,102633.97
2023-04-03T10:23:40.452Z,102626.72
2023-04-03T10:24:49.374Z,102622.28
2023-04-03T10:25:50.048Z,102623.25